MyTimes logo

TIMES

Webb Imagery

27/01/2013
Channel Challenge
550m Swim / 2.0km Run - Local Residents

(Click on competitor name to view personalised results)

Name
Race #
Category
Time
(h:mm:ss)
Avg Speed
km/hr
OAll
Place
Cat
Place
PLANT Luke#57Local Senior Male0:12:34"12.2 " 11
ROWE Mark#148Local Senior Male0:12:40"12.1 " 22
VAN AGTMAAL Beau#733Local Junior Male0:13:05"11.7 " 31
BUTT Chloe#351Local Senior Female0:13:17"11.5 " 41
FLEISNER Rob#667Local Male 50+0:13:26"11.4 " 51
MANTEIT Michael#753Local Junior Male0:13:34"11.3 " 62
JUDD Alex#66Local Senior Male0:13:36"11.2 " 73
HARRISON Hamish#162Local Senior Male0:14:03"10.9 " 84
BOND Marcus#42Local Senior Male0:14:09"10.8 " 95
TILLEY Justin#90Local Senior Male0:14:10"10.8 " 106
ROLLAND Thierry#677Local Male 40-490:14:12"10.8 " 111
BILL Greg#665Local Male 40-490:14:17"10.7 " 122
HANLEY Philip#713Local Male 50+0:14:22"10.6 " 132
CORBET Jim#672Local Male 40-490:14:24"10.6 " 143
SUNDERLAND Andrew#69Local Senior Male0:14:40"10.4 " 157
ONLEY Thomas#73Local Senior Male0:14:48"10.3 " 168
HUMPHRIS Stephen#40Local Senior Male0:14:59"10.2 " 179
TURNER Georgia#346Local Junior Female0:15:03"10.2 " 181
MATTHEWS Jack#75Local Senior Male0:15:05"10.1 " 1910
HATL Walter#751Local Junior Male0:15:08"10.1 " 203
PLUCK Neil#43Local Senior Male0:15:12"10.1 " 2111
EVANS Brad#732Local Male 40-490:15:12"10.1 " 224
HETERSBRUEG Andre#71Local Senior Male0:15:14"10.0 " 2312
YUSKO Bill#698Local Male 50+0:15:25"9.9 " 243
EDWARDS Molly#427Local Junior Female0:15:38"9.8 " 252
HUGHES Hilary#350Local Senior Female0:15:42"9.7 " 262
CHISHOLM Andy#58Local Senior Male0:15:44"9.7 " 2713
FALLOON Darren#747Local Male 40-490:15:44"9.7 " 285
SULLIVAN Matthew#5Local Senior Male0:15:47"9.7 " 2914
THOMPSON Travis#67Local Senior Male0:15:49"9.7 " 3015
CROWE Susan#435Local Senior Female0:15:57"9.6 " 313
HARRIS Simon#32Local Senior Male0:15:58"9.6 " 3216
SALTON Marcus#60Local Senior Male0:16:00"9.6 " 3317
RIELLY Debie#338Local Female 40-490:16:05"9.5 " 341
HARRIS Kris#48Local Senior Male0:16:08"9.5 " 3518
DALLINGER Chris#81Local Senior Male0:16:15"9.4 " 3619
O'KEEFFE Louise#319Local Senior Female0:16:17"9.4 " 374
HERBERT Duncan#612Local Male 40-490:16:17"9.4 " 386
IRWIN Alexa#436Local Senior Female0:16:38"9.2 " 395
FISHER Surrey#684Local Junior Male0:16:38"9.2 " 404
MINTER Kris#56Local Senior Male0:16:40"9.2 " 4120
OLSEN Andrea#378Local Female 40-490:16:42"9.2 " 422
TURNER Peter#636Local Male 50+0:16:42"9.2 " 434
WEBB Brendon#80Local Senior Male0:16:43"9.2 " 4421
WATSON Russell#635Local Male 40-490:16:46"9.1 " 457
ROSS Matthew#18Local Senior Male0:16:49"9.1 " 4622
BRADEN Mick#644Local Male 40-490:16:51"9.1 " 478
PAYNE Simon#673Local Male 40-490:16:52"9.1 " 489
TURNER Olivia#347Local Junior Female0:16:53"9.1 " 493
MARSHALL Luke#82Local Senior Male0:16:56"9.0 " 5023
JUDD Gary#710Local Male 50+0:16:59"9.0 " 515
FISHER Kevin#683Local Male 50+0:17:02"9.0 " 526
GOLDIE Tony#763Local Male 40-490:17:12"8.9 " 5310
YOUNG Scott#123Local Senior Male0:17:32"8.7 " 5424
GRIFFITHS Kylie#382Local Female 40-490:17:35"8.7 " 553
LANGFORD Dean#697Local Male 50+0:17:39"8.7 " 567
DUNN Sarah#344Local Senior Female0:17:40"8.7 " 576
O'DONOHUE Jacob#693Local Junior Male0:17:42"8.6 " 585
HERRINGTON Cameron#715Local Male 40-490:17:43"8.6 " 5911
CAMPBELL Hamish#156Local Senior Male0:17:44"8.6 " 6025
TUFF Stephen#89Local Senior Male0:17:45"8.6 " 6126
JOHNSON Eric#112Local Senior Male0:17:47"8.6 " 6227
CHANDLER Mark#92Local Senior Male0:17:48"8.6 " 6328
MAIER Adrian#122Local Senior Male0:17:48"8.6 " 6429
BERRY Tim#103Local Senior Male0:17:59"8.5 " 6530
TAYLOR Jack#740Local Junior Male0:18:00"8.5 " 666
DAFF Geoff#664Local Male 50+0:18:07"8.4 " 678
MOSELEY Tessa#321Local Senior Female0:18:13"8.4 " 687
PHELAN Glenn#646Local Male 40-490:18:14"8.4 " 6912
JOHNSTONNE Chris#694Local Male 40-490:18:17"8.4 " 7013
LANGFIELD Imigen#402Local Junior Female0:18:19"8.4 " 714
MCDONALD Kellie#337Local Senior Female0:18:19"8.4 " 728
PEACOCK Daniel#95Local Senior Male0:18:23"8.3 " 7331
HYMPHREY Kirk#70Local Senior Male0:18:33"8.2 " 7432
HORNSBY Tony#86Local Senior Male0:18:39"8.2 " 7533
SCICLUNA Todd#10Local Senior Male0:18:39"8.2 " 7634
ALDERSON Allan#716Local Male 50+0:18:39"8.2 " 779
CHAPMAN Wayne#105Local Senior Male0:18:43"8.2 " 7835
O'DONOHUE Mark#692Local Male 50+0:18:44"8.2 " 7910
FLEISNER Paul#631Local Male 50+0:18:44"8.2 " 8011
BAXTER Virginia#384Local Female 40-490:18:55"8.1 " 814
VIRTUE Melinda#459Local Female 40-490:19:02"8.0 " 825
LAMB Simon#111Local Senior Male0:19:03"8.0 " 8336
VAN DER HEYDEN Natalie#323Local Senior Female0:19:03"8.0 " 849
BERRY Angela#380Local Senior Female0:19:05"8.0 " 8510
HOOLYAOK Sophie#428Local Junior Female0:19:06"8.0 " 865
HIBBLE Jenny#305Local Female 50+0:19:12"8.0 " 871
SZEITLI Justine#400Local Senior Female0:19:16"7.9 " 8811
BUCHANAN Kate#307Local Senior Female0:19:17"7.9 " 8912
LUCK Jarrod#614Local Male 40-490:19:18"7.9 " 9014
GOLDIE Lauren#472Local Senior Female0:19:23"7.9 " 9113
DIXON Amanda#367Local Senior Female0:19:30"7.8 " 9214
MATTHEWS Robert#618Local Male 50+0:19:32"7.8 " 9312
MARSHALL Sarah#343Local Female 40-490:19:40"7.8 " 946
JOHNSON Travis#25Local Senior Male0:19:43"7.8 " 9537
PHILLIPS Mathew#79Local Senior Male0:19:43"7.8 " 9638
MANNING John#87Local Senior Male0:19:53"7.7 " 9739
BEHRE Michaela#312Local Junior Female0:19:56"7.7 " 986
WARING Colin#746Local Male 40-490:19:58"7.7 " 9915
CHASTON Pete#669Local Male 50+0:19:59"7.7 " 10013
STELZER Hermann#676Local Male 50+0:20:04"7.6 " 10114
DYNON Paul#687Local Male 40-490:20:04"7.6 " 10216
TURNER Bridget#403Local Junior Female0:20:06"7.6 " 1037
MORRISON Kerry#463Local Female 50+0:20:09"7.6 " 1042
BEAUMONT Ashley#124Local Senior Male0:20:13"7.6 " 10540
HONEY Phoebe#368Local Senior Female0:20:20"7.5 " 10615
SHAW Melanie#395Local Senior Female0:20:52"7.3 " 10716
MC DONALD Gordon#661Local Male 50+0:20:54"7.3 " 10815
CAIN Greg#736Local Male 50+0:20:55"7.3 " 10916
COLE Nick#690Local Male 40-490:20:59"7.3 " 11017
HOLLINS Jenny#355Local Female 40-490:21:05"7.3 " 1117
ADAMS Murray#657Local Male 50+0:21:21"7.2 " 11217
POLLARD-VIRTUE Caleb#739Local Junior Male0:21:27"7.1 " 1137
BAILEY Annie#335Local Female 50+0:21:28"7.1 " 1143
CARTER Verena#375Local Senior Female0:21:30"7.1 " 11517
MC CLELLAND Laura#392Local Senior Female0:21:30"7.1 " 11618
HERRRINGTON Suzie#404Local Female 40-490:21:32"7.1 " 1178
CAMPON Samantha#469Local Senior Female0:21:34"7.1 " 11819
EGAN Holly#389Local Junior Female0:21:48"7.0 " 1198
VIRTUE Robert#744Local Male 40-490:21:52"7.0 " 12018
VITUE Blade#738Local Junior Male0:22:21"6.8 " 1218
MCGENNISKEN Kerry#364Local Senior Female0:22:27"6.8 " 12220
WRIGHT Phil#745Local Male 50+0:22:33"6.8 " 12318
HARDMAN Gill#329Local Female 50+0:22:38"6.8 " 1244
GOODE Tom#622Local Male 50+0:22:40"6.7 " 12519
DALLINGER Brian#689Local Male 50+0:22:41"6.7 " 12620
HOLLYOAK Phil#719Local Male 40-490:22:41"6.7 " 12719
MARSHALL Kerri#388Local Senior Female0:22:48"6.7 " 12821
VIRTUE Jacob#743Local Junior Male0:22:55"6.7 " 1299
BOWKER Colin#758Local Male 40-490:23:01"6.6 " 13020
JONES Danene#453Local Senior Female0:23:50"6.4 " 13122
WILLIAMS Colleen#374Local Female 40-490:23:55"6.4 " 1329
O'HALLARAN Allison#418Local Female 40-490:24:17"6.3 " 13310
THOMAS Julie#455Local Female 50+0:24:21"6.3 " 1345
CUTHBERTSON Wynonna#466Local Senior Female0:24:26"6.3 " 13523
CLEELAND Philippa#423Local Female 40-490:25:11"6.1 " 13611
ABRAHAMSON Marcus#129Local Senior Male0:25:34"6.0 " 13741
CLEELAND Mike#714Local Male 50+0:25:43"5.9 " 13821
DIAMOND Michael#440Local Female 40-490:25:44"5.9 " 13912
CHUDIAK Matthew#151Local Senior Male0:25:55"5.9 " 14042
CHAMBERS Ron#616Local Male 50+0:25:58"5.9 " 14122
COOPER Paul#649Local Male 40-490:28:09"5.4 " 14221
O'DONOHUE Lesley#399Local Female 40-490:28:35"5.4 " 14313
WRIGHT Steve#460Local Female 50+0:28:57"5.3 " 1446
DOWNWARD Dylan#674Local Junior Male0:29:02"5.3 " 14510
DIXON Melanie#313Local Senior Female0:29:52"5.1 " 14624
WILLIS Eddy#465Local Female 50+0:29:58"5.1 " 1477
ROSENZWEY Melanie#398Local Female 40-490:30:29"5.0 " 14814
WILLIAMS Carly#425Local Senior Female0:33:49"4.5 " 14925
JOHNSON Christine#391Local Female 40-490:35:00"4.4 " 15015
WALKER Christine#405Local Female 50+0:35:03"4.4 " 1518